Terminal Aerodrome Forecast
Issued by NWS Cleveland, OH

Home | Current Version | Previous Version | Graphics & Text | Print | Product List | Glossary Off
Versions: 1 2 3 4 5 6 7 8 9 10 11 12 13 14 15 16 17 18 19 20 21 22 23 24

822
FTUS41 KCLE 260215 AAA
TAFTOL
TAF AMD
KTOL 260215Z 2602/2624 28012G20KT P6SM SCT028 OVC035
     FM261300 24008KT P6SM SCT035 OVC100
     FM261800 22015G25KT P6SM BKN070=

USA.gov is the U.S. government's official web portal to all federal, state and local government web resources and services.